< < Back
Terminal Aerodrome Forecast


Current Version              Previous Versions:   1  2  3  4  5  6  7  8  9  

Terminal Aerodrome Forecast

582
FTUS42 KTAE 280520
TAFABY
TAF
KABY 280520Z 2806/2906 02003KT P6SM OVC200
     FM281200 10010KT P6SM OVC025
     FM282000 12008KT P6SM VCTS BKN030CB=

Latest METAR

092
SAUS70 KWBC 281800
MTRABY
METAR KABY 281753Z 09007KT 10SM OVC026 20/16 A2986 RMK AO2 RAB1655E14
SLP109 P0000 60001 T02000156 10200 20172 58012


USA.gov is the U.S. government's official web portal to all federal, state and local government web resources and services.